Latest Weather Observations for Kingfish B

IDV60801

Issued at 10:02 pm EST Wednesday 24 August 2016 (issued every 30 minutes, with the page automatically refreshed every 10 minutes)

About weather observations | Map of weather stations | Latest weather observations for VIC | Other Formats
Station Details ID: 400139 Name: KINGFISH B (PLATFORM) Lat: -38.60 Lon: 148.19 Height: 31.4 m
Data from the previous 72 hours. | See also: Recent months for locations in Victoria
Date/Time
EST
Temp
°C
App
Temp
°C
Dew
Point
°C
Rel
Hum
%
Delta-T
°C
Wind Press
QNH
hPa
Press
MSL
hPa
Rain since
9am
mm
Dir  Spd
km/h
Gust
km/h
Spd
kts
Gust
kts
24/08:50pm 11.7 7.2 4.2 60 3.4 SSW 17 20 9 11 1010.8 - -
24/08:40pm 11.7 7.1 3.9 59 3.5 SSW 17 22 9 12 1010.7 - -
24/08:30pm 11.8 7.0 4.4 60 3.3 SSW 19 22 10 12 1010.7 - -
24/08:20pm 11.8 7.0 4.8 62 3.2 SSW 19 22 10 12 1010.8 - -
24/08:00pm 11.6 8.0 4.9 63 3.1 SW 13 17 7 9 1010.7 - -
24/07:50pm 11.8 7.9 5.2 64 3.0 SW 15 22 8 12 1010.8 - -
24/07:40pm 11.7 8.1 5.1 64 3.0 SSW 13 17 7 9 1010.9 - -
24/07:30pm 11.6 8.0 5.0 64 3.0 SW 13 19 7 10 1010.8 - -
24/07:20pm 11.7 8.5 5.1 64 3.0 SW 11 17 6 9 1010.8 - -
24/07:10pm 11.8 8.2 5.1 63 3.1 SSW 13 19 7 10 1011.1 - -
24/07:00pm 11.7 7.7 5.0 63 3.1 SSW 15 19 8 10 1011.1 - -
24/06:50pm 11.7 7.7 4.7 62 3.2 SSW 15 20 8 11 1011.0 - -
24/06:40pm 11.8 7.8 4.7 62 3.2 SSW 15 19 8 10 1010.9 - -
24/06:30pm 11.8 8.1 4.7 62 3.2 SSW 13 19 7 10 1011.1 - -
24/06:20pm 11.8 8.5 4.5 61 3.3 SSW 11 17 6 9 1010.8 - -
24/06:10pm 11.8 8.5 4.5 61 3.3 SW 11 17 6 9 1010.8 - -
24/06:00pm 11.7 8.4 4.5 61 3.3 SSW 11 15 6 8 1011.0 - -
24/05:50pm 11.7 8.4 4.4 61 3.3 SSW 11 17 6 9 1011.0 - -
24/05:40pm 11.6 9.1 4.6 62 3.2 SSW 7 15 4 8 1011.0 - -
24/05:30pm 11.6 8.7 4.5 61 3.2 SSW 9 15 5 8 1011.0 - -
24/05:20pm 11.3 8.4 4.5 63 3.1 SSW 9 13 5 7 1011.3 - -
24/05:10pm 11.2 7.9 4.5 63 3.0 SSW 11 15 6 8 1011.3 - -
24/05:00pm 11.2 7.9 4.3 62 3.1 SSW 11 15 6 8 1011.3 - -
24/04:50pm 11.2 7.9 4.3 62 3.1 SSW 11 17 6 9 1011.1 - -
24/04:40pm 11.4 8.5 4.6 63 3.1 SSW 9 17 5 9 1011.1 - -
24/04:30pm 11.3 8.7 4.4 62 3.1 SSW 7 13 4 7 1011.0 - -
24/04:20pm 11.6 8.7 4.5 61 3.2 SSW 9 13 5 7 1010.7 - -
24/04:10pm 11.5 8.5 4.3 61 3.2 SSW 9 13 5 7 1010.9 - -
24/04:00pm 11.8 8.8 4.1 59 3.5 SSW 9 15 5 8 1011.1 - -
24/03:50pm 12.1 8.7 3.9 57 3.7 SSW 11 17 6 9 1010.9 - -
24/03:40pm 12.1 9.2 4.5 59 3.5 SSW 9 15 5 8 1010.9 - -
24/03:30pm 12.2 8.9 4.5 59 3.5 SSW 11 17 6 9 1011.0 - -
24/03:20pm 11.9 8.2 4.2 59 3.5 SSW 13 19 7 10 1011.2 - -
24/03:10pm 12.4 9.1 4.5 58 3.6 SSW 11 17 6 9 1011.2 - -
24/03:00pm 12.3 9.4 4.6 59 3.5 SSW 9 17 5 9 1011.1 - -
24/02:50pm 12.3 9.0 4.6 59 3.5 SSW 11 15 6 8 1011.2 - -
24/02:40pm 12.0 9.3 5.6 65 3.0 SSW 9 15 5 8 1011.1 - -
24/02:30pm 11.8 9.5 5.8 66 2.8 SSW 7 15 4 8 1011.2 - -
24/02:20pm 12.0 9.6 5.3 63 3.1 SSW 7 11 4 6 1011.4 - -
24/02:10pm 12.5 10.2 5.7 63 3.2 SW 7 11 4 6 1011.4 - -
24/02:00pm 12.6 10.8 5.6 62 3.3 SW 4 9 2 5 1011.7 - -
24/01:50pm 12.7 11.3 5.6 62 3.3 SW 2 6 1 3 1011.9 - -
24/01:40pm 12.9 11.5 5.7 61 3.4 WSW 2 6 1 3 1011.9 - -
24/01:30pm 12.9 11.6 5.8 62 3.3 WSW 2 6 1 3 1012.1 - -
24/01:20pm 13.0 11.7 5.9 62 3.4 WSW 2 7 1 4 1012.2 - -
24/01:10pm 13.1 11.8 6.0 62 3.4 WSW 2 7 1 4 1012.3 - -
24/01:00pm 12.9 11.2 5.7 61 3.4 WSW 4 7 2 4 1012.2 - -
24/12:50pm 12.8 11.1 6.0 63 3.2 SW 4 7 2 4 1012.3 - -
24/12:40pm 12.7 11.1 6.4 65 3.0 SW 4 6 2 3 1012.4 - -
24/12:30pm 12.8 11.6 6.3 64 3.1 SW 2 6 1 3 1012.4 - -
24/12:20pm 12.8 11.6 6.4 65 3.0 SW 2 6 1 3 1012.4 - -
24/12:10pm 13.1 11.5 6.5 64 3.2 SW 4 7 2 4 1012.6 - -
24/12:00pm 12.9 11.3 6.4 64 3.1 SW 4 7 2 4 1012.6 - -
24/11:50am 12.6 11.3 6.1 64 3.1 SW 2 6 1 3 1012.7 - -
24/11:40am 12.6 11.0 6.3 65 3.0 SW 4 7 2 4 1012.8 - -
24/11:30am 12.4 11.2 6.5 67 2.8 SW 2 7 1 4 1012.8 - -
24/11:20am 12.4 11.7 6.8 68 2.7 CALM 0 0 0 0 1012.8 - -
24/11:10am 12.3 11.6 6.8 69 2.6 CALM 0 0 0 0 1013.2 - -
24/11:00am 12.4 11.3 7.1 70 2.6 SW 2 4 1 2 1013.2 - -
24/10:50am 12.3 11.2 6.9 69 2.6 SW 2 4 1 2 1013.5 - -
24/10:40am 12.1 11.4 6.8 70 2.5 CALM 0 2 0 1 1013.5 - -
24/10:30am 11.9 11.2 6.8 71 2.4 CALM 0 0 0 0 1013.6 - -
24/10:20am 11.6 10.8 6.6 71 2.4 CALM 0 0 0 0 1013.6 - -
24/10:10am 11.6 10.8 6.6 71 2.4 CALM 0 0 0 0 1014.0 - -
24/10:00am 11.6 10.8 6.5 71 2.4 CALM 0 0 0 0 1014.1 - -
24/09:50am 11.9 11.2 6.9 71 2.4 CALM 0 0 0 0 1014.1 - -
24/09:40am 11.5 10.7 6.7 72 2.3 CALM 0 0 0 0 1014.3 - -
24/09:30am 11.1 10.3 6.4 73 2.2 CALM 0 0 0 0 1014.4 - -
24/09:20am 10.9 10.0 6.2 73 2.2 CALM 0 0 0 0 1014.3 - -
24/09:10am 10.8 9.9 6.0 72 2.2 CALM 0 0 0 0 1014.2 - -
24/09:00am 10.8 9.8 5.7 71 2.4 CALM 0 0 0 0 1013.9 - -
24/08:50am 12.0 9.8 6.4 68 2.7 SSW 7 13 4 7 1014.2 - -
24/08:40am 12.6 9.0 6.9 68 2.7 SSW 15 17 8 9 1014.2 - -
24/08:30am 12.5 9.7 6.9 68 2.7 SSW 11 15 6 8 1014.3 - -
24/08:20am 12.0 10.0 6.4 68 2.7 SSW 6 9 3 5 1014.3 - -
24/08:10am 11.2 9.1 5.9 70 2.5 SSW 6 9 3 5 1014.5 - -
24/08:00am 11.1 8.8 5.8 70 2.5 SSW 7 11 4 6 1014.7 - -
24/07:50am 11.7 8.7 6.0 68 2.7 SSW 11 15 6 8 1014.7 - -
24/07:40am 12.8 9.5 6.4 65 3.0 SSW 13 17 7 9 1014.7 - -
24/07:30am 13.5 10.6 6.4 62 3.4 SW 11 15 6 8 1014.6 - -
24/07:20am 13.1 10.6 6.4 64 3.2 WSW 9 13 5 7 1014.5 - -
24/07:10am 12.4 9.9 6.5 67 2.8 SW 9 11 5 6 1014.6 - -
24/07:00am 11.9 9.9 6.2 68 2.7 WSW 6 11 3 6 1014.6 - -
24/06:50am 11.8 9.6 6.1 68 2.7 WSW 7 11 4 6 1014.6 - -
24/06:40am 11.9 9.7 6.0 67 2.8 SW 7 11 4 6 1014.6 - -
24/06:30am 12.0 9.4 6.3 68 2.7 WSW 9 13 5 7 1014.5 - -
24/06:20am 12.0 9.4 6.3 68 2.7 WSW 9 15 5 8 1014.6 - -
24/06:10am 12.0 9.5 6.4 68 2.7 WSW 9 13 5 7 1014.4 - -
24/06:00am 11.9 9.3 6.3 68 2.6 WSW 9 15 5 8 1014.4 - -
24/05:50am 11.9 9.0 6.4 69 2.6 WSW 11 17 6 9 1014.5 - -
24/05:40am 11.9 9.0 6.6 70 2.5 WSW 11 15 6 8 1014.2 - -
24/05:30am 11.9 9.0 6.6 70 2.5 WSW 11 17 6 9 1014.1 - -
24/05:20am 11.9 9.0 6.7 70 2.5 WSW 11 15 6 8 1013.9 - -
24/05:10am 11.9 8.7 6.7 70 2.5 WSW 13 17 7 9 1013.7 - -
24/05:00am 11.9 8.7 6.7 70 2.5 WSW 13 17 7 9 1013.7 - -
24/04:40am 11.8 8.9 6.6 70 2.5 WSW 11 15 6 8 1014.2 - -
24/04:30am 11.8 9.4 6.8 71 2.4 WSW 9 15 5 8 1014.4 - -
24/04:20am 11.9 9.5 7.0 72 2.3 WSW 9 13 5 7 1014.4 - -
24/04:10am 12.0 9.6 7.1 72 2.4 WSW 9 15 5 8 1014.6 - -
24/04:00am 11.9 9.5 7.1 72 2.3 WSW 9 13 5 7 1014.7 - -
24/03:50am 11.9 9.1 7.1 72 2.3 WSW 11 17 6 9 1014.7 - -
24/03:40am 11.9 9.1 7.0 72 2.3 WSW 11 15 6 8 1014.6 - -
24/03:30am 11.9 9.9 7.0 72 2.3 WSW 7 13 4 7 1014.7 - -
24/03:20am 12.0 9.6 7.0 71 2.4 WSW 9 13 5 7 1014.7 - -
24/03:10am 12.0 9.6 7.0 71 2.4 WSW 9 13 5 7 1014.9 - -
24/03:00am 12.0 9.6 6.8 70 2.5 WSW 9 13 5 7 1014.9 - -
24/02:50am 12.1 10.0 6.6 69 2.6 WSW 7 11 4 6 1014.8 - -
24/02:40am 12.0 9.3 5.8 66 2.9 WSW 9 13 5 7 1014.8 - -
24/02:30am 11.5 9.1 5.2 65 2.9 SW 7 13 4 7 1014.6 - -
24/02:20am 11.5 9.1 5.2 65 2.9 SW 7 11 4 6 1014.8 - -
24/02:10am 11.4 9.5 5.1 65 2.9 SW 4 7 2 4 1014.9 - -
24/02:00am 11.5 9.3 5.1 65 2.9 SW 6 9 3 5 1014.9 - -
24/01:50am 11.5 9.2 4.9 64 3.0 SSW 6 9 3 5 1014.9 - -
24/01:40am 11.5 9.2 4.9 64 3.0 SSW 6 9 3 5 1015.0 - -
24/01:30am 11.5 9.2 5.0 64 3.0 SSW 6 7 3 4 1015.2 - -
24/01:20am 11.5 9.2 5.0 64 3.0 SSW 6 9 3 5 1015.4 - -
24/01:10am 11.5 9.6 5.0 64 3.0 SW 4 9 2 5 1015.5 - -
24/01:00am 11.6 10.1 4.8 63 3.1 SW 2 7 1 4 1015.6 - -
24/12:50am 11.6 9.7 4.9 63 3.1 SW 4 7 2 4 1015.7 - -
24/12:40am 11.5 9.2 4.8 63 3.1 SW 6 9 3 5 1015.6 - -
24/12:30am 11.6 9.7 5.1 64 3.0 SW 4 6 2 3 1015.7 - -
24/12:20am 11.5 10.0 5.0 64 3.0 SW 2 6 1 3 1015.8 - -
24/12:10am 11.6 9.4 5.3 65 2.9 SW 6 9 3 5 1015.9 - -
24/12:00am 11.6 9.4 5.2 65 2.9 SW 6 11 3 6 1016.0 - -
 
Date/Time
EST
Temp
°C
App
Temp
°C
Dew
Point
°C
Rel
Hum
%
Delta-T
°C
Wind Press
QNH
hPa
Press
MSL
hPa
Rain since
9am
mm
Dir  Spd
km/h
Gust
km/h
Spd
kts
Gust
kts
23/11:50pm 11.6 9.2 5.1 64 3.0 SSW 7 11 4 6 1016.0 - -
23/11:40pm 11.7 9.3 5.3 65 3.0 SW 7 11 4 6 1015.9 - -
23/11:30pm 11.7 9.3 5.4 65 2.9 SW 7 11 4 6 1015.8 - -
23/11:20pm 11.7 8.9 5.2 64 3.0 SSW 9 15 5 8 1015.8 - -
23/11:10pm 11.7 8.5 5.2 64 3.0 SSW 11 15 6 8 1015.7 - -
23/11:00pm 11.6 8.8 5.3 65 2.9 SSW 9 13 5 7 1016.0 - -
23/10:50pm 11.5 8.7 5.2 65 2.9 SSW 9 15 5 8 1015.8 - -
23/10:40pm 11.5 8.0 5.5 66 2.8 SSW 13 17 7 9 1016.0 - -
23/10:30pm 11.4 7.9 5.6 67 2.7 SSW 13 17 7 9 1015.9 - -
23/10:20pm 11.4 7.5 5.5 67 2.7 SSW 15 19 8 10 1016.0 - -
23/10:10pm 11.6 7.8 5.6 66 2.8 SSW 15 19 8 10 1015.9 - -
23/10:00pm 11.6 8.1 5.6 66 2.8 SSW 13 17 7 9 1016.0 - -
23/09:50pm 11.3 7.4 5.4 67 2.7 SSW 15 19 8 10 1016.0 - -
23/09:40pm 11.3 7.0 5.2 66 2.8 SSW 17 22 9 12 1016.1 - -
23/09:30pm 11.2 6.9 5.3 67 2.7 S 17 22 9 12 1016.2 - -
23/09:20pm 11.2 6.9 5.4 67 2.7 S 17 20 9 11 1016.1 - -
23/09:10pm 11.3 7.0 5.3 66 2.8 SSW 17 20 9 11 1016.0 - -
23/09:00pm 11.4 7.1 5.2 65 2.8 SSW 17 22 9 12 1016.1 - -
23/08:50pm 11.6 7.6 5.1 64 3.0 SSW 15 20 8 11 1016.1 - -
23/08:40pm 11.5 7.6 5.3 65 2.9 SSW 15 19 8 10 1016.4 - -
23/08:30pm 11.7 8.1 5.2 64 3.0 SSW 13 20 7 11 1016.3 - -
23/08:20pm 11.7 8.1 5.0 63 3.1 SSW 13 17 7 9 1016.4 - -
23/08:10pm 11.6 7.6 4.8 63 3.1 SSW 15 19 8 10 1016.6 - -
23/08:00pm 11.6 8.0 5.0 64 3.0 SSW 13 19 7 10 1016.6 - -
23/07:50pm 11.6 8.0 4.9 63 3.1 SSW 13 17 7 9 1016.6 - -
23/07:40pm 11.6 8.0 4.9 63 3.1 SSW 13 17 7 9 1016.7 - -
23/07:30pm 11.7 8.1 5.0 63 3.1 SSW 13 17 7 9 1016.8 - -
23/07:20pm 11.6 8.0 5.1 64 3.0 SSW 13 17 7 9 1016.8 - -
23/07:10pm 11.6 8.8 5.0 64 3.0 SSW 9 15 5 8 1016.7 - -
23/07:00pm 11.6 8.4 5.2 65 2.9 SSW 11 15 6 8 1016.7 - -
23/06:50pm 11.7 8.9 5.3 65 3.0 SSW 9 13 5 7 1016.6 - -
23/06:40pm 11.6 8.5 5.5 66 2.8 SSW 11 15 6 8 1016.4 - -
23/06:30pm 11.5 8.8 5.8 68 2.7 SSW 9 15 5 8 1016.5 - -
23/06:20pm 11.6 9.0 6.0 68 2.6 SSW 9 13 5 7 1016.3 - -
23/06:10pm 11.5 8.9 5.9 68 2.6 SSW 9 13 5 7 1016.3 - -
23/06:00pm 11.5 8.8 5.7 67 2.7 SSW 9 11 5 6 1016.3 - -
23/05:50pm 11.5 9.2 5.7 67 2.7 SSW 7 11 4 6 1016.3 - -
23/05:40pm 11.5 9.2 5.7 67 2.7 SW 7 11 4 6 1016.2 - -
23/05:30pm 11.6 8.9 5.7 67 2.7 SW 9 13 5 7 1016.2 - -
23/05:20pm 11.6 8.9 5.5 66 2.8 SSW 9 13 5 7 1016.2 - -
23/05:10pm 11.6 8.9 5.8 67 2.7 SW 9 13 5 7 1016.2 - -
23/05:00pm 11.6 8.6 6.0 68 2.6 SW 11 15 6 8 1016.1 - -
23/04:50pm 11.6 8.6 6.1 69 2.6 SW 11 15 6 8 1016.2 - -
23/04:40pm 11.7 8.8 6.3 69 2.5 SW 11 15 6 8 1016.0 - -
23/04:30pm 11.8 9.3 6.5 70 2.5 SW 9 11 5 6 1016.0 - -
23/04:20pm 11.9 9.4 6.5 69 2.6 SW 9 13 5 7 1016.0 - -
23/04:10pm 11.9 9.4 6.4 69 2.6 SW 9 11 5 6 1015.9 - -
23/04:00pm 11.9 9.4 6.5 69 2.6 SW 9 13 5 7 1015.8 - -
23/03:50pm 11.9 9.8 6.5 69 2.6 SW 7 11 4 6 1015.7 - -
23/03:40pm 11.9 9.0 6.4 69 2.6 SW 11 13 6 7 1015.6 - -
23/03:30pm 11.9 9.0 6.4 69 2.6 SW 11 15 6 8 1015.5 - -
23/03:20pm 11.9 8.9 6.2 68 2.7 SW 11 15 6 8 1015.5 - -
23/03:10pm 12.3 9.4 6.3 67 2.8 SW 11 17 6 9 1015.5 - -
23/03:00pm 12.5 8.8 6.4 66 2.9 SW 15 20 8 11 1015.3 - -
23/02:50pm 12.4 9.1 6.4 67 2.9 SW 13 19 7 10 1015.3 - -
23/02:40pm 12.5 9.6 6.3 66 2.9 SW 11 17 6 9 1015.2 - -
23/02:30pm 12.5 9.6 6.4 66 2.9 SW 11 15 6 8 1015.2 - -
23/02:20pm 12.4 9.1 6.2 66 2.9 SW 13 17 7 9 1015.1 - -
23/02:10pm 12.5 9.2 6.6 67 2.8 SW 13 15 7 8 1015.1 - -
23/02:00pm 12.3 8.9 5.9 65 3.0 SW 13 15 7 8 1015.0 - -
23/01:50pm 12.5 9.5 6.0 64 3.1 SW 11 15 6 8 1015.0 - -
23/01:40pm 12.5 8.4 6.4 66 2.9 SW 17 22 9 12 1014.9 - -
23/01:30pm 12.5 8.7 5.7 63 3.2 SW 15 24 8 13 1015.1 - -
23/01:20pm 12.4 9.3 5.5 63 3.2 SSW 11 15 6 8 1015.1 - -
23/01:10pm 12.4 9.7 5.8 64 3.1 SW 9 11 5 6 1015.1 - -
23/01:00pm 12.5 10.3 6.4 66 2.9 SW 7 11 4 6 1015.2 - -
23/12:50pm 12.8 10.8 6.9 67 2.8 WSW 7 15 4 8 1015.0 - -
23/12:40pm 12.3 9.0 6.4 67 2.8 SW 13 19 7 10 1014.9 - -
23/12:30pm 11.8 8.4 6.0 67 2.7 SSW 13 15 7 8 1015.2 - -
23/12:20pm 12.0 7.9 6.0 66 2.8 SSW 17 20 9 11 1015.2 - -
23/12:00pm 12.6 8.1 5.9 63 3.2 SSW 19 24 10 13 1015.2 - -
23/11:50am 12.7 8.9 5.8 63 3.2 SSW 15 19 8 10 1015.2 - -
23/11:40am 13.4 10.0 6.1 61 3.5 SSW 13 19 7 10 1015.2 - -
23/11:30am 13.4 10.5 6.3 62 3.4 SW 11 15 6 8 1015.1 - -
23/11:20am 13.5 10.5 5.8 59 3.6 SW 11 15 6 8 1015.2 - -
23/11:10am 13.6 10.9 5.7 59 3.7 SW 9 13 5 7 1015.3 - -
23/11:00am 13.7 10.6 5.5 57 3.9 SW 11 15 6 8 1015.4 - -
23/10:50am 13.8 11.0 5.3 56 4.0 SW 9 11 5 6 1015.6 - -
23/10:40am 13.8 11.1 5.4 57 3.9 SSW 9 15 5 8 1015.5 - -
23/10:30am 13.9 10.7 5.3 56 4.0 SSW 11 15 6 8 1015.7 - -
23/10:20am 13.9 10.8 5.4 56 4.0 SW 11 15 6 8 1015.7 - -
23/10:10am 13.9 10.8 5.6 57 3.9 SW 11 15 6 8 1015.8 - -
23/10:00am 13.8 10.6 5.2 56 4.0 SW 11 15 6 8 1015.7 - -
23/09:50am 13.6 10.1 5.3 57 3.9 SW 13 19 7 10 1015.8 - -
23/09:40am 13.4 9.6 5.7 59 3.6 SW 15 20 8 11 1015.8 - -
23/09:30am 13.0 9.8 5.1 58 3.7 SW 11 20 6 11 1016.1 - -
23/09:20am 12.3 9.0 4.8 60 3.4 SSW 11 15 6 8 1016.2 - -
23/09:10am 12.1 8.9 4.9 61 3.3 S 11 15 6 8 1016.2 - -
23/09:00am 12.6 9.7 4.6 58 3.7 SSW 9 13 5 7 1016.0 - -
23/08:50am 13.3 10.4 4.6 55 4.0 SSW 9 13 5 7 1015.9 - -
23/08:40am 13.3 9.6 4.2 54 4.2 SSW 13 19 7 10 1016.0 - -
23/08:30am 13.3 10.0 4.5 55 4.0 SSW 11 15 6 8 1015.9 - -
23/08:20am 12.2 8.4 4.1 57 3.7 SSW 13 19 7 10 1016.0 - -
23/08:10am 12.3 8.6 4.2 57 3.7 SSW 13 19 7 10 1016.0 - -
23/08:00am 12.1 8.4 4.5 59 3.5 SSW 13 17 7 9 1016.1 - -
23/07:50am 12.4 8.7 4.2 57 3.7 SSW 13 17 7 9 1016.0 - -
23/07:40am 11.7 8.4 4.4 61 3.3 SSW 11 17 6 9 1016.1 - -
23/07:30am 11.8 8.1 4.5 61 3.3 SSW 13 17 7 9 1016.0 - -
23/07:20am 12.4 8.7 4.4 58 3.6 SSW 13 24 7 13 1015.8 - -
23/07:10am 12.2 8.4 4.0 57 3.7 SSW 13 17 7 9 1015.7 - -
23/07:00am 11.8 8.0 3.8 58 3.6 SSW 13 17 7 9 1015.6 - -
23/06:50am 11.7 7.6 4.2 60 3.4 SSW 15 20 8 11 1015.4 - -
23/06:40am 12.2 8.0 4.0 57 3.7 SSW 15 22 8 12 1015.3 - -
23/06:30am 11.7 7.9 3.9 59 3.5 SSW 13 19 7 10 1015.1 - -
23/06:20am 11.5 7.6 3.6 58 3.5 SSW 13 19 7 10 1015.0 - -
23/06:10am 11.4 7.1 3.1 56 3.6 SSW 15 20 8 11 1014.8 - -
23/06:00am 11.1 6.8 3.5 59 3.3 SSW 15 20 8 11 1014.7 - -
23/05:50am 11.2 6.2 3.5 59 3.4 SSW 19 24 10 13 1014.8 - -
23/05:40am 11.1 6.5 3.7 60 3.3 SSW 17 22 9 12 1014.6 - -
23/05:30am 11.1 6.6 4.2 62 3.1 S 17 22 9 12 1014.6 - -
23/05:20am 11.2 7.1 4.4 63 3.1 SSW 15 20 8 11 1014.3 - -
23/05:10am 11.1 6.5 3.8 61 3.2 SSW 17 20 9 11 1014.2 - -
23/05:00am 11.1 6.7 4.8 65 2.9 SSW 17 19 9 10 1014.1 - -
23/04:50am 11.1 6.2 4.0 61 3.2 S 19 22 10 12 1014.1 - -
23/04:40am 11.0 6.2 4.6 64 2.9 S 19 24 10 13 1014.1 - -
23/04:30am 11.0 6.6 4.5 64 2.9 S 17 22 9 12 1014.0 - -
23/04:20am 11.0 6.1 4.1 62 3.1 S 19 22 10 12 1014.1 - -
23/04:10am 11.0 6.0 4.4 64 3.0 S 20 24 11 13 1014.0 - -
23/04:00am 11.2 6.8 4.9 65 2.9 S 17 22 9 12 1014.0 - -
23/03:50am 11.1 6.7 5.0 66 2.8 S 17 22 9 12 1013.9 - -
23/03:40am 11.1 6.7 5.0 66 2.8 S 17 22 9 12 1013.9 - -
23/03:30am 11.1 6.7 4.8 65 2.9 S 17 22 9 12 1013.9 - -
23/03:20am 11.2 6.8 4.8 64 2.9 S 17 20 9 11 1014.0 - -
23/03:10am 11.2 7.3 5.2 66 2.7 S 15 20 8 11 1013.9 - -
23/03:00am 11.1 7.7 6.0 71 2.4 S 13 19 7 10 1013.8 - -
23/02:50am 11.1 8.5 6.2 72 2.3 S 9 17 5 9 1013.7 - -
23/02:40am 11.1 8.9 6.4 73 2.2 S 7 13 4 7 1013.7 - -
23/02:30am 11.0 8.8 6.2 72 2.2 S 7 13 4 7 1013.6 - -
23/02:20am 11.1 8.1 6.1 71 2.3 S 11 15 6 8 1013.6 - -
23/02:10am 11.0 8.4 5.9 71 2.4 S 9 13 5 7 1013.6 - -
23/02:00am 11.0 8.4 6.1 72 2.3 S 9 11 5 6 1013.8 - -
23/01:50am 11.1 8.6 6.6 74 2.1 S 9 15 5 8 1013.8 - -
23/01:40am 11.0 8.6 6.8 75 2.0 S 9 13 5 7 1013.7 - -
23/01:30am 10.9 7.7 7.0 77 1.9 S 13 17 7 9 1013.8 - -
23/01:20am 10.8 7.7 7.4 79 1.6 S 13 17 7 9 1013.9 - -
23/01:10am 10.7 8.1 7.6 81 1.5 S 11 15 6 8 1013.9 - -
23/01:00am 10.8 8.2 7.7 81 1.5 S 11 15 6 8 1014.0 - -
23/12:50am 11.1 8.1 7.9 81 1.6 S 13 17 7 9 1014.1 - -
23/12:40am 11.2 9.0 8.0 81 1.6 SSW 9 13 5 7 1014.1 - -
23/12:30am 11.1 9.3 8.0 81 1.5 S 7 11 4 6 1014.2 - -
23/12:20am 11.3 9.1 7.8 79 1.7 S 9 13 5 7 1014.2 - -
23/12:10am 11.5 9.9 8.0 79 1.7 SSW 6 9 3 5 1014.0 - -
23/12:00am 11.3 10.1 7.9 79 1.7 SW 4 6 2 3 1013.8 - -
 
Date/Time
EST
Temp
°C
App
Temp
°C
Dew
Point
°C
Rel
Hum
%
Delta-T
°C
Wind Press
QNH
hPa
Press
MSL
hPa
Rain since
9am
mm
Dir  Spd
km/h
Gust
km/h
Spd
kts
Gust
kts
22/11:50pm 11.3 10.1 8.0 80 1.6 SW 4 7 2 4 1013.9 - -
22/11:40pm 11.4 10.2 8.0 79 1.7 SW 4 6 2 3 1013.9 - -
22/11:30pm 11.5 10.3 8.1 79 1.7 SW 4 7 2 4 1013.8 - -
22/11:20pm 11.7 10.1 8.1 78 1.8 SW 6 7 3 4 1013.9 - -
22/11:10pm 11.7 10.5 8.0 78 1.8 WSW 4 6 2 3 1013.9 - -
22/11:00pm 11.8 10.9 7.8 76 1.9 SW 2 6 1 3 1013.9 - -
22/10:50pm 11.8 10.2 7.8 76 1.9 SW 6 7 3 4 1014.0 - -
22/10:40pm 11.8 10.5 7.8 76 1.9 SW 4 6 2 3 1014.0 - -
22/10:30pm 11.7 10.5 7.9 77 1.9 SW 4 6 2 3 1014.1 - -
22/10:20pm 11.8 11.3 8.0 77 1.9 CALM 0 4 0 2 1014.2 - -
22/10:10pm 11.9 11.1 8.0 77 1.9 SW 2 2 1 1 1014.4 - -
22/10:00pm 11.9 11.4 8.0 77 1.9 CALM 0 2 0 1 1014.4 - -
22/09:50pm 11.8 11.3 7.9 77 1.9 CALM 0 2 0 1 1014.4 - -
22/09:40pm 11.7 11.2 7.9 77 1.9 CALM 0 2 0 1 1014.4 - -
22/09:30pm 11.6 11.1 7.8 77 1.8 CALM 0 2 0 1 1014.5 - -
22/09:20pm 11.6 11.1 7.7 77 1.9 CALM 0 2 0 1 1014.5 - -
22/09:10pm 11.8 11.2 7.6 75 2.0 CALM 0 2 0 1 1014.5 - -
22/09:00pm 11.8 11.2 7.5 75 2.1 CALM 0 4 0 2 1014.5 - -
22/08:50pm 11.6 11.0 7.4 75 2.0 CALM 0 2 0 1 1014.4 - -
22/08:40pm 11.5 10.9 7.6 77 1.9 CALM 0 0 0 0 1014.3 - -
22/08:20pm 11.9 11.4 7.8 76 2.0 CALM 0 0 0 0 1014.5 - -
22/08:10pm 11.9 11.3 7.6 75 2.1 CALM 0 0 0 0 1014.5 - -
22/08:00pm 12.0 11.5 7.8 75 2.1 CALM 0 4 0 2 1014.5 - -
22/07:50pm 12.3 11.5 8.1 75 2.1 SSW 2 4 1 2 1014.5 - -
22/07:40pm 12.6 11.4 8.2 74 2.2 SSW 4 7 2 4 1014.5 - -
22/07:30pm 12.2 11.7 7.8 74 2.2 CALM 0 4 0 2 1014.4 - -
22/07:20pm 12.1 11.5 7.6 74 2.2 CALM 0 0 0 0 1014.3 - -
22/07:10pm 12.0 11.4 7.5 74 2.2 CALM 0 0 0 0 1014.1 - -
22/07:00pm 11.9 11.3 7.3 73 2.2 CALM 0 0 0 0 1014.0 - -
22/06:50pm 11.9 11.3 7.3 73 2.2 CALM 0 0 0 0 1014.0 - -
22/06:40pm 11.9 11.3 7.3 73 2.2 CALM 0 0 0 0 1013.9 - -
22/06:20pm 11.8 11.2 7.2 73 2.2 CALM 0 0 0 0 1013.6 - -
22/06:10pm 11.8 11.2 7.2 73 2.2 CALM 0 0 0 0 1013.4 - -
22/06:00pm 11.8 11.2 7.2 73 2.2 CALM 0 0 0 0 1013.2 - -
22/05:50pm 11.8 11.2 7.2 73 2.2 CALM 0 0 0 0 1013.1 - -
22/05:40pm 11.8 11.2 7.2 73 2.2 CALM 0 2 0 1 1012.9 - -
22/05:30pm 11.7 11.1 7.2 74 2.2 CALM 0 0 0 0 1012.9 - -
22/05:20pm 11.8 11.2 7.2 73 2.2 CALM 0 0 0 0 1012.9 - -
22/05:00pm 11.8 11.2 7.2 73 2.2 CALM 0 0 0 0 1012.7 - -
22/04:50pm 11.8 11.2 7.2 73 2.2 CALM 0 0 0 0 1012.7 - -
22/04:40pm 11.8 11.2 7.2 73 2.2 CALM 0 0 0 0 1012.6 - -
22/04:30pm 11.8 11.2 7.2 73 2.2 CALM 0 0 0 0 1012.7 - -
22/04:20pm 11.9 11.3 7.2 73 2.3 CALM 0 0 0 0 1012.7 - -
22/04:10pm 11.9 11.3 7.2 73 2.3 CALM 0 0 0 0 1012.6 - -
22/04:00pm 11.9 11.2 7.1 72 2.3 CALM 0 0 0 0 1012.5 - -
22/03:50pm 12.0 11.3 7.1 72 2.4 CALM 0 0 0 0 1012.5 - -
22/03:40pm 12.2 11.5 7.0 70 2.5 CALM 0 0 0 0 1012.3 - -
22/03:30pm 12.5 11.8 7.0 69 2.6 CALM 0 0 0 0 1012.2 - -
22/03:20pm 13.3 12.8 7.7 69 2.8 CALM 0 0 0 0 1012.3 - -
22/03:10pm 13.1 12.6 7.7 70 2.7 CALM 0 0 0 0 1012.2 - -
22/03:00pm 12.7 12.1 7.3 69 2.6 CALM 0 0 0 0 1012.2 - -
22/02:50pm 12.7 12.1 7.2 69 2.7 CALM 0 0 0 0 1012.3 - -
22/02:40pm 12.9 12.2 7.0 67 2.8 CALM 0 0 0 0 1012.2 - -
22/02:30pm 13.9 13.3 7.6 66 3.1 CALM 0 0 0 0 1012.3 - -
22/02:20pm 14.2 13.7 7.8 65 3.2 CALM 0 0 0 0 1012.3 - -
22/02:10pm 14.4 13.9 7.8 64 3.3 CALM 0 0 0 0 1012.3 - -
22/02:00pm 14.6 14.1 7.9 64 3.3 CALM 0 0 0 0 1012.2 - -
22/01:50pm 14.6 14.1 7.9 64 3.3 CALM 0 0 0 0 1012.3 - -
22/01:40pm 14.7 14.2 8.0 64 3.3 CALM 0 0 0 0 1012.3 - -
22/01:30pm 14.2 13.7 7.9 66 3.1 CALM 0 0 0 0 1012.5 - -
22/01:20pm 13.9 13.3 7.6 66 3.1 CALM 0 0 0 0 1012.5 - -
22/01:10pm 13.8 13.2 7.4 65 3.1 CALM 0 0 0 0 1012.5 - -
22/01:00pm 13.9 13.3 7.3 64 3.2 CALM 0 0 0 0 1012.5 - -
22/12:50pm 13.9 13.3 7.4 65 3.2 CALM 0 0 0 0 1012.5 - -
22/12:40pm 13.9 13.3 7.3 64 3.2 CALM 0 0 0 0 1012.6 - -
22/12:30pm 13.8 13.2 7.2 64 3.2 CALM 0 2 0 1 1012.6 - -
22/12:20pm 13.8 13.2 7.2 64 3.2 CALM 0 0 0 0 1012.6 - -
22/12:10pm 13.9 13.2 7.1 63 3.3 CALM 0 2 0 1 1012.6 - -
22/12:00pm 13.8 13.1 7.1 64 3.3 CALM 0 2 0 1 1012.7 - -
22/11:50am 14.0 13.3 7.0 62 3.4 CALM 0 2 0 1 1012.8 - -
22/11:40am 14.1 13.4 7.0 62 3.5 CALM 0 2 0 1 1012.9 - -
22/11:30am 14.2 13.5 6.9 61 3.6 CALM 0 2 0 1 1013.0 - -
22/11:20am 14.5 13.4 6.9 60 3.7 WSW 2 4 1 2 1013.3 - -
22/11:10am 14.8 13.3 7.0 59 3.8 WSW 4 6 2 3 1013.3 - -
22/11:00am 14.8 13.0 7.2 60 3.7 WSW 6 7 3 4 1013.4 - -
22/10:50am 14.9 13.2 7.4 61 3.7 WSW 6 7 3 4 1013.2 - -
22/10:40am 14.9 13.1 7.3 60 3.7 WSW 6 9 3 5 1013.2 - -
22/10:30am 15.0 13.7 7.7 61 3.6 WSW 4 7 2 4 1013.4 - -
22/10:20am 14.8 13.4 7.3 61 3.7 W 4 7 2 4 1013.4 - -
22/10:10am 14.8 13.0 7.2 60 3.7 W 6 11 3 6 1013.7 - -
22/10:00am 14.6 12.6 7.1 60 3.7 W 7 11 4 6 1013.7 - -
22/09:50am 14.4 12.0 7.1 61 3.6 W 9 13 5 7 1013.8 - -
22/09:40am 14.5 12.2 7.4 62 3.5 W 9 11 5 6 1014.0 - -
22/09:30am 14.6 12.7 7.5 62 3.5 W 7 11 4 6 1013.9 - -
22/09:20am 14.5 12.2 7.3 62 3.5 W 9 13 5 7 1013.8 - -
22/09:10am 14.3 11.6 7.2 62 3.5 W 11 13 6 7 1013.8 - -
22/09:00am 14.2 11.5 7.4 63 3.3 W 11 15 6 8 1013.9 - -
22/08:40am 14.3 12.1 7.8 65 3.2 W 9 11 5 6 1013.9 - -
22/08:30am 14.2 12.4 7.8 65 3.2 W 7 11 4 6 1013.7 - -
22/08:20am 14.2 12.4 7.8 65 3.2 W 7 11 4 6 1013.8 - -
22/08:10am 14.1 12.3 7.8 66 3.1 W 7 11 4 6 1013.8 - -
22/08:00am 14.1 11.9 7.7 65 3.2 W 9 11 5 6 1013.8 - -
22/07:50am 13.9 11.7 7.7 66 3.1 W 9 11 5 6 1013.8 - -
22/07:40am 13.8 11.6 7.8 67 3.0 W 9 13 5 7 1013.7 - -
22/07:30am 13.7 11.8 7.7 67 3.0 W 7 11 4 6 1013.8 - -
22/07:20am 13.6 11.3 7.6 67 3.0 W 9 13 5 7 1013.7 - -
22/07:10am 13.5 10.8 7.5 67 2.9 W 11 15 6 8 1013.6 - -
22/07:00am 13.4 10.8 7.8 69 2.8 W 11 15 6 8 1013.6 - -
22/06:50am 13.0 10.8 7.8 70 2.6 W 9 13 5 7 1013.4 - -
22/06:40am 13.0 11.2 7.9 71 2.5 W 7 9 4 5 1013.3 - -
22/06:30am 12.8 11.0 7.9 72 2.4 W 7 11 4 6 1013.2 - -
22/06:20am 12.8 11.0 8.1 73 2.3 W 7 11 4 6 1013.2 - -
22/06:10am 12.7 10.6 8.4 75 2.1 W 9 13 5 7 1013.0 - -
22/06:00am 12.5 10.8 8.5 76 2.0 W 7 9 4 5 1012.9 - -
22/05:50am 12.4 10.7 8.5 77 1.9 W 7 13 4 7 1012.8 - -
22/05:40am 12.3 11.2 8.5 77 1.9 WSW 4 7 2 4 1012.7 - -
22/05:30am 12.1 11.0 8.4 78 1.8 WSW 4 7 2 4 1012.4 - -
22/05:20am 11.9 11.1 8.3 78 1.8 WSW 2 4 1 2 1012.3 - -
22/05:10am 11.8 11.0 8.2 78 1.8 WSW 2 7 1 4 1012.3 - -
22/05:00am 11.7 10.9 8.1 78 1.8 WSW 2 6 1 3 1012.4 - -
22/04:50am 11.6 10.8 8.1 79 1.7 WSW 2 4 1 2 1012.3 - -
22/04:40am 11.5 10.6 7.9 78 1.8 SW 2 6 1 3 1012.1 - -
22/04:30am 11.6 10.4 7.9 78 1.8 SW 4 6 2 3 1011.8 - -
22/04:20am 11.7 10.1 8.0 78 1.8 SW 6 7 3 4 1011.9 - -
22/04:10am 11.8 10.0 7.9 77 1.9 SW 7 11 4 6 1011.7 - -
22/04:00am 11.8 9.6 7.8 76 1.9 SW 9 13 5 7 1011.7 - -
22/03:50am 11.8 9.2 7.6 75 2.0 SW 11 13 6 7 1011.7 - -
22/03:40am 11.8 8.7 7.4 74 2.1 SW 13 15 7 8 1011.9 - -
22/03:30am 11.9 8.8 7.4 74 2.2 SW 13 17 7 9 1012.0 - -
22/03:20am 11.9 8.4 7.4 74 2.2 WSW 15 19 8 10 1012.0 - -
22/03:10am 11.8 8.3 7.2 73 2.2 WSW 15 19 8 10 1012.0 - -
22/03:00am 11.8 8.3 7.2 73 2.2 WSW 15 19 8 10 1012.0 - -
22/02:50am 11.8 7.9 7.2 73 2.2 W 17 20 9 11 1011.9 - -
22/02:40am 11.9 8.1 7.4 74 2.2 W 17 22 9 12 1012.1 - -
22/02:30am 11.9 8.1 7.4 74 2.2 WSW 17 22 9 12 1012.0 - -
22/02:20am 11.9 7.7 7.4 74 2.2 WSW 19 24 10 13 1012.2 - -
22/02:10am 11.9 7.7 7.3 73 2.2 WSW 19 24 10 13 1012.1 - -
22/02:00am 12.0 7.6 7.5 74 2.2 WSW 20 26 11 14 1012.0 - -
22/01:50am 12.0 7.8 7.6 74 2.1 WSW 19 26 10 14 1011.9 - -
22/01:40am 12.0 8.2 7.7 75 2.1 WSW 17 22 9 12 1012.2 - -
22/01:30am 12.0 7.9 7.7 75 2.1 W 19 22 10 12 1012.3 - -
22/01:20am 12.0 7.9 7.8 75 2.1 W 19 20 10 11 1012.2 - -
22/01:10am 12.0 7.9 7.8 75 2.1 W 19 24 10 13 1012.4 - -
22/01:00am 12.0 7.9 7.7 75 2.1 W 19 24 10 13 1012.3 - -
22/12:50am 12.4 8.2 8.1 75 2.1 W 20 24 11 13 1012.2 - -
22/12:40am 12.1 7.8 8.0 76 2.0 W 20 24 11 13 1012.1 - -
22/12:30am 12.0 8.0 8.1 77 1.9 W 19 24 10 13 1012.2 - -
22/12:20am 12.0 8.0 8.1 77 1.9 W 19 24 10 13 1012.1 - -
22/12:10am 12.0 8.7 8.2 77 1.9 W 15 22 8 12 1012.1 - -
22/12:00am 11.9 8.6 8.1 77 1.9 W 15 19 8 10 1012.2 - -
 
Date/Time
EST
Temp
°C
App
Temp
°C
Dew
Point
°C
Rel
Hum
%
Delta-T
°C
Wind Press
QNH
hPa
Press
MSL
hPa
Rain since
9am
mm
Dir  Spd
km/h
Gust
km/h
Spd
kts
Gust
kts
21/11:50pm 11.8 8.9 8.2 78 1.8 W 13 19 7 10 1012.3 - -
21/11:40pm 11.9 9.0 8.2 78 1.8 W 13 15 7 8 1012.5 - -
21/11:30pm 11.8 8.9 8.2 78 1.8 W 13 15 7 8 1012.5 - -
21/11:20pm 11.7 8.8 8.3 79 1.7 W 13 19 7 10 1012.7 - -
21/11:10pm 11.8 8.2 8.5 80 1.6 W 17 20 9 11 1012.4 - -
21/11:00pm 12.0 8.2 8.9 81 1.5 W 19 24 10 13 1012.6 - -
21/10:50pm 12.9 9.7 10.0 82 1.5 W 17 22 9 12 1012.8 - -
21/10:40pm 12.4 8.7 10.1 86 1.2 WNW 20 26 11 14 1012.8 - -
21/10:30pm 11.9 6.1 9.5 85 1.2 WNW 30 39 16 21 1012.7 - -
21/10:20pm 12.2 8.6 9.9 86 1.2 WNW 19 33 10 18 1012.8 - -
21/10:10pm 12.3 10.3 10.1 86 1.1 NW 11 20 6 11 1013.0 - -

Other Formats:

Comma delimited format used in spreadsheet applications
http://www.bom.gov.au/fwo/IDV60801/IDV60801.55039.axf

JavaScript Object Notation format (JSON) in row-major order
http://www.bom.gov.au/fwo/IDV60801/IDV60801.55039.json